Time;durP1;ratioP1;P1;durP2;ratioP2;P2;SDS_P1;SDS_P2;PMS_P1;PMS_P2;Temp;Humidity;BMP_temperature;BMP_pressure;BME280_temperature;BME280_humidity;BME280_pressure;Samples;Min_cycle;Max_cycle;Signal;HPM_P1;HPM_P2
2022/08/09 04:04:14;;;;;;;2.90;2.70;;;15.20;99.90;;;;;;5608534;23;20836;-68
2022/08/09 04:06:39;;;;;;;3.40;3.13;;;15.20;99.90;;;;;;4977098;28;20448;-68
2022/08/09 04:09:06;;;;;;;2.40;2.30;;;15.10;99.90;;;;;;4976933;28;20423;-68
2022/08/09 04:11:49;;;;;;;3.43;3.23;;;15.20;99.90;;;;;;4978382;28;20241;-69
2022/08/09 04:14:19;;;;;;;2.77;2.63;;;15.10;99.90;;;;;;4978034;28;20516;-67
2022/08/09 04:16:45;;;;;;;2.80;2.60;;;15.10;99.90;;;;;;4977953;28;20421;-68
2022/08/09 04:19:12;;;;;;;2.87;2.67;;;15.10;99.90;;;;;;4978231;28;20448;-68
2022/08/09 04:21:38;;;;;;;3.77;3.47;;;15.00;99.90;;;;;;4978096;28;20238;-68
2022/08/09 04:24:04;;;;;;;3.90;3.60;;;15.00;99.90;;;;;;4977514;28;20434;-69
2022/08/09 04:26:30;;;;;;;2.57;2.47;;;15.10;99.90;;;;;;4977758;28;20417;-68
2022/08/09 04:28:55;;;;;;;2.80;2.70;;;15.10;99.90;;;;;;4977917;28;20406;-69
2022/08/09 04:31:21;;;;;;;3.30;3.10;;;15.20;99.90;;;;;;4978102;28;20178;-69
2022/08/09 04:33:46;;;;;;;2.57;2.47;;;15.20;99.90;;;;;;4976253;28;20219;-69
2022/08/09 04:36:12;;;;;;;3.07;2.87;;;15.20;99.90;;;;;;4977391;28;20187;-69
2022/08/09 04:38:38;;;;;;;3.33;3.10;;;15.20;99.90;;;;;;4977903;28;20183;-69
2022/08/09 04:41:03;;;;;;;5.87;3.20;;;15.20;99.90;;;;;;4977145;28;20191;-68
2022/08/09 04:43:29;;;;;;;3.50;3.20;;;15.30;99.90;;;;;;4977111;28;20196;-68
2022/08/09 04:45:55;;;;;;;3.20;3.00;;;15.50;99.90;;;;;;4977821;28;20226;-68
2022/08/09 04:48:21;;;;;;;3.03;2.83;;;15.70;99.90;;;;;;4977599;28;20297;-67
2022/08/09 04:50:46;;;;;;;3.27;2.97;;;15.90;99.90;;;;;;4977201;28;20184;-68
2022/08/09 04:53:12;;;;;;;3.53;3.33;;;16.10;99.90;;;;;;4977051;28;20905;-68
2022/08/09 04:55:38;;;;;;;3.40;3.17;;;16.30;99.90;;;;;;4977341;28;20164;-68
2022/08/09 04:58:05;;;;;;;3.17;2.87;;;16.50;99.90;;;;;;4977058;28;20427;-68
2022/08/09 05:00:33;;;;;;;3.57;3.37;;;16.80;99.90;;;;;;4977078;28;20262;-68
2022/08/09 05:03:03;;;;;;;2.93;2.73;;;17.20;99.70;;;;;;4976508;28;20419;-66
2022/08/09 05:05:29;;;;;;;3.40;3.20;;;17.70;98.90;;;;;;4976879;28;20493;-68
2022/08/09 05:07:55;;;;;;;3.20;3.00;;;18.20;97.00;;;;;;4976552;28;20498;-69
2022/08/09 05:10:21;;;;;;;3.20;3.00;;;18.40;95.80;;;;;;4976307;28;20193;-68
2022/08/09 05:12:46;;;;;;;3.10;2.90;;;18.50;94.80;;;;;;4976363;28;20449;-67
2022/08/09 05:15:12;;;;;;;4.60;3.00;;;18.50;94.20;;;;;;4976595;28;20276;-70
2022/08/09 05:17:38;;;;;;;5.67;4.00;;;18.50;94.00;;;;;;4977216;28;20186;-70
2022/08/09 05:20:05;;;;;;;3.90;3.70;;;18.40;94.10;;;;;;4976892;28;20184;-71
2022/08/09 05:22:30;;;;;;;3.73;3.53;;;18.30;94.50;;;;;;4976595;28;20413;-69
2022/08/09 05:24:56;;;;;;;3.80;3.33;;;18.20;94.50;;;;;;4976555;28;20963;-65
2022/08/09 05:27:21;;;;;;;3.43;3.20;;;18.20;94.70;;;;;;4976966;28;20206;-67
2022/08/09 05:29:47;;;;;;;3.40;3.20;;;18.10;95.00;;;;;;4976493;28;20184;-65
2022/08/09 05:32:13;;;;;;;3.40;3.17;;;18.30;95.10;;;;;;4976492;28;20181;-65
2022/08/09 05:34:38;;;;;;;16.43;3.80;;;18.30;94.70;;;;;;4976215;28;20270;-66
2022/08/09 05:37:05;;;;;;;2.73;2.53;;;18.40;94.50;;;;;;4976344;28;20777;-69
2022/08/09 05:39:38;;;;;;;3.87;3.63;;;18.50;94.30;;;;;;4976265;28;20206;-69
2022/08/09 05:42:04;;;;;;;3.50;3.30;;;18.50;93.90;;;;;;4976848;28;20522;-69
2022/08/09 05:44:31;;;;;;;3.40;3.00;;;18.50;93.80;;;;;;4974724;28;20438;-69
2022/08/09 05:46:57;;;;;;;4.10;3.70;;;18.50;93.70;;;;;;4973152;28;20809;-67
2022/08/09 05:49:23;;;;;;;3.47;3.17;;;18.60;93.70;;;;;;4972966;28;20486;-67
2022/08/09 05:51:49;;;;;;;3.50;3.30;;;18.60;93.80;;;;;;4959381;28;20447;-68
2022/08/09 05:54:14;;;;;;;5.63;4.20;;;18.60;93.60;;;;;;4973522;28;20206;-67
2022/08/09 05:56:40;;;;;;;4.70;3.37;;;18.70;93.70;;;;;;4976076;28;20241;-67
2022/08/09 05:59:06;;;;;;;3.73;3.33;;;18.80;93.60;;;;;;4976271;28;20254;-68
2022/08/09 06:01:32;;;;;;;3.90;3.60;;;18.80;93.30;;;;;;4974900;28;20638;-68
2022/08/09 06:03:58;;;;;;;3.27;3.07;;;18.80;93.20;;;;;;4969042;28;20498;-68
2022/08/09 06:06:24;;;;;;;3.93;3.60;;;18.90;93.00;;;;;;4975932;28;20421;-69
2022/08/09 06:08:50;;;;;;;5.70;3.67;;;18.90;92.60;;;;;;4975664;28;20444;-69
2022/08/09 06:11:16;;;;;;;3.13;2.93;;;19.00;92.80;;;;;;4975036;28;20513;-68
2022/08/09 06:13:41;;;;;;;3.17;3.00;;;19.00;92.40;;;;;;4974762;28;20987;-69
2022/08/09 06:16:09;;;;;;;3.00;2.80;;;19.10;92.50;;;;;;4975922;28;20208;-69
2022/08/09 06:18:35;;;;;;;6.40;3.50;;;19.10;92.40;;;;;;4975077;28;20411;-69
2022/08/09 06:21:02;;;;;;;3.97;3.67;;;19.20;92.30;;;;;;4973980;28;20436;-68
2022/08/09 06:23:30;;;;;;;3.40;3.17;;;19.40;92.10;;;;;;4975518;28;20438;-66
2022/08/09 06:25:55;;;;;;;3.90;3.60;;;19.60;91.60;;;;;;4975853;28;20810;-64
2022/08/09 06:28:21;;;;;;;5.07;3.40;;;19.60;91.70;;;;;;4975884;28;20554;-66
2022/08/09 06:30:47;;;;;;;3.87;3.57;;;19.70;91.50;;;;;;4975332;28;20168;-64
2022/08/09 06:33:12;;;;;;;4.20;3.40;;;19.70;91.40;;;;;;4975270;28;20176;-65
2022/08/09 06:35:38;;;;;;;3.47;3.17;;;19.80;91.70;;;;;;4975129;28;20165;-64
2022/08/09 06:38:04;;;;;;;5.30;4.90;;;19.90;91.60;;;;;;4975445;28;20578;-65
2022/08/09 06:40:30;;;;;;;3.47;3.13;;;20.00;91.30;;;;;;4975299;28;20662;-65
2022/08/09 06:42:56;;;;;;;5.23;3.40;;;20.10;91.20;;;;;;4974839;28;20223;-65
2022/08/09 06:45:22;;;;;;;2.93;2.73;;;20.30;91.10;;;;;;4975015;28;20515;-64
2022/08/09 06:47:48;;;;;;;4.17;3.67;;;20.40;90.90;;;;;;4974479;28;20546;-63
2022/08/09 06:50:15;;;;;;;3.83;3.60;;;20.50;90.40;;;;;;4975494;28;20504;-65
2022/08/09 06:52:47;;;;;;;3.30;3.10;;;20.50;90.20;;;;;;4974916;28;20483;-64
2022/08/09 06:55:18;;;;;;;3.40;3.20;;;20.60;90.30;;;;;;4975254;28;20857;-66
2022/08/09 06:57:43;;;;;;;3.80;3.50;;;20.80;89.20;;;;;;4974950;28;20424;-65
2022/08/09 07:00:10;;;;;;;3.67;3.47;;;20.90;89.30;;;;;;4975191;28;20481;-66
2022/08/09 07:02:36;;;;;;;4.10;3.80;;;20.90;89.60;;;;;;4974472;28;20257;-67
2022/08/09 07:05:02;;;;;;;3.50;3.30;;;21.00;89.60;;;;;;4974888;28;20448;-66
2022/08/09 07:07:28;;;;;;;2.80;2.60;;;21.10;88.50;;;;;;4974654;28;20203;-66
2022/08/09 07:09:53;;;;;;;4.70;3.00;;;21.20;88.30;;;;;;4975160;28;20782;-66
2022/08/09 07:12:19;;;;;;;3.10;2.90;;;21.20;88.20;;;;;;4974300;28;20200;-67
2022/08/09 07:14:45;;;;;;;3.87;3.53;;;21.30;88.10;;;;;;4974905;28;20560;-66
2022/08/09 07:17:11;;;;;;;4.67;4.27;;;21.40;88.40;;;;;;4974525;28;20180;-65
2022/08/09 07:19:37;;;;;;;4.27;3.90;;;21.50;87.30;;;;;;4974468;28;20516;-66
2022/08/09 07:22:03;;;;;;;3.63;3.43;;;21.60;87.10;;;;;;4973524;28;20553;-65
2022/08/09 07:24:32;;;;;;;2.60;2.50;;;21.70;85.40;;;;;;4974301;28;20442;-68
2022/08/09 07:26:58;;;;;;;3.23;2.93;;;21.90;85.20;;;;;;4974854;28;20204;-66
2022/08/09 07:29:26;;;;;;;12.67;3.20;;;22.00;84.60;;;;;;4973262;28;20519;-67
2022/08/09 07:31:52;;;;;;;3.40;3.20;;;22.10;83.70;;;;;;4968597;28;20987;-66
2022/08/09 07:34:17;;;;;;;3.30;3.10;;;22.20;83.80;;;;;;4974180;28;20432;-67
2022/08/09 07:36:43;;;;;;;2.63;2.53;;;22.40;82.40;;;;;;4974367;28;20458;-67
2022/08/09 07:39:09;;;;;;;3.70;3.50;;;22.70;81.40;;;;;;4974883;28;20307;-67
2022/08/09 07:41:34;;;;;;;3.40;3.10;;;22.90;79.70;;;;;;4974358;28;20972;-69
2022/08/09 07:44:00;;;;;;;3.07;2.87;;;23.20;79.40;;;;;;4974024;28;20674;-67
2022/08/09 07:46:26;;;;;;;2.60;2.50;;;23.80;78.10;;;;;;4974230;28;20254;-68
2022/08/09 07:48:52;;;;;;;3.43;3.13;;;24.60;76.70;;;;;;4965829;28;20208;-68
2022/08/09 07:51:18;;;;;;;4.30;2.97;;;25.50;73.30;;;;;;4974081;28;20251;-69
2022/08/09 07:53:44;;;;;;;2.70;2.50;;;26.50;70.20;;;;;;4973336;28;20605;-69
2022/08/09 07:56:09;;;;;;;3.10;2.90;;;27.50;65.70;;;;;;4974010;28;20172;-68
2022/08/09 07:58:35;;;;;;;2.57;2.47;;;28.50;62.70;;;;;;4974535;28;20411;-68
2022/08/09 08:01:01;;;;;;;3.17;2.97;;;29.60;59.70;;;;;;4973133;28;20263;-66
2022/08/09 08:03:27;;;;;;;2.63;2.50;;;30.60;58.00;;;;;;4973935;28;20192;-67
2022/08/09 08:05:52;;;;;;;2.90;2.70;;;31.40;56.20;;;;;;4974116;28;20948;-68
2022/08/09 08:08:18;;;;;;;3.00;2.80;;;32.20;54.20;;;;;;4974180;28;20255;-68
2022/08/09 08:10:44;;;;;;;2.80;2.70;;;32.80;53.20;;;;;;4974302;28;20175;-69
2022/08/09 08:13:09;;;;;;;3.57;3.27;;;33.50;52.00;;;;;;4973590;28;20574;-65
2022/08/09 08:15:35;;;;;;;3.20;3.10;;;34.00;51.20;;;;;;4974464;28;20165;-69
2022/08/09 08:18:01;;;;;;;3.23;3.13;;;34.30;50.10;;;;;;4974132;28;20538;-64
2022/08/09 08:20:28;;;;;;;3.27;3.07;;;34.80;48.80;;;;;;4954962;28;20187;-67
2022/08/09 08:22:54;;;;;;;3.20;3.00;;;35.10;48.20;;;;;;4954536;28;20203;-68
2022/08/09 08:25:20;;;;;;;2.80;2.60;;;35.30;47.70;;;;;;4954861;28;20436;-67
2022/08/09 08:27:46;;;;;;;3.10;2.80;;;35.50;47.10;;;;;;4954942;28;20201;-68
2022/08/09 08:30:17;;;;;;;3.23;3.03;;;35.90;47.10;;;;;;4954838;28;20487;-68
2022/08/09 08:32:43;;;;;;;2.93;2.73;;;36.30;46.20;;;;;;4968498;28;20867;-67
2022/08/09 08:35:09;;;;;;;3.50;3.30;;;36.60;45.00;;;;;;4973355;28;20422;-68
2022/08/09 08:37:34;;;;;;;3.17;3.07;;;36.80;45.20;;;;;;4973871;28;20176;-69
2022/08/09 08:40:01;;;;;;;2.90;2.80;;;36.80;44.60;;;;;;4973947;28;20212;-73
2022/08/09 08:42:28;;;;;;;3.10;2.90;;;36.80;44.60;;;;;;4972834;28;20184;-70
2022/08/09 08:44:56;;;;;;;3.00;2.80;;;36.30;44.60;;;;;;4977559;28;20526;-68
2022/08/09 08:47:26;;;;;;;4.50;3.03;;;36.20;44.90;;;;;;4977607;28;20451;-68
2022/08/09 08:49:53;;;;;;;2.73;2.63;;;36.50;44.80;;;;;;4977666;28;20894;-68
2022/08/09 08:52:21;;;;;;;3.00;2.80;;;36.90;44.30;;;;;;4976696;28;20402;-67
2022/08/09 08:54:47;;;;;;;3.00;2.90;;;37.20;43.50;;;;;;4976818;28;20432;-68
2022/08/09 08:57:13;;;;;;;2.97;2.80;;;37.00;43.30;;;;;;4971165;28;20423;-68
2022/08/09 08:59:39;;;;;;;3.27;3.07;;;36.60;43.80;;;;;;4958167;28;20169;-67
2022/08/09 09:02:07;;;;;;;2.70;2.60;;;36.50;44.10;;;;;;4958145;28;20424;-68
2022/08/09 09:04:34;;;;;;;3.23;3.03;;;36.60;44.10;;;;;;4975290;28;20294;-68
2022/08/09 09:07:06;;;;;;;3.17;3.07;;;36.60;43.80;;;;;;4976233;28;20570;-68
2022/08/09 09:09:34;;;;;;;3.03;2.83;;;36.50;43.90;;;;;;4976863;28;20477;-68
2022/08/09 09:12:00;;;;;;;2.67;2.57;;;36.70;43.10;;;;;;4976876;28;20404;-68
2022/08/09 09:14:29;;;;;;;3.47;3.27;;;36.80;43.30;;;;;;4976723;28;20447;-69
2022/08/09 09:16:55;;;;;;;2.70;2.60;;;36.90;43.30;;;;;;4976018;28;20415;-70
2022/08/09 09:19:21;;;;;;;2.43;2.33;;;37.30;42.60;;;;;;4976566;28;20449;-70
2022/08/09 09:22:02;;;;;;;3.30;3.10;;;37.30;42.10;;;;;;4977118;28;20508;-70
2022/08/09 09:24:31;;;;;;;3.30;3.10;;;37.20;42.20;;;;;;4970581;28;20211;-69
2022/08/09 09:26:59;;;;;;;3.27;3.00;;;36.70;42.70;;;;;;4976334;28;21031;-70
2022/08/09 09:29:33;;;;;;;3.07;2.87;;;36.80;42.70;;;;;;4976338;28;20782;-70
2022/08/09 09:32:00;;;;;;;3.30;3.10;;;36.90;42.60;;;;;;4976909;28;20399;-70
2022/08/09 09:34:26;;;;;;;2.97;2.87;;;37.10;42.10;;;;;;4976233;28;20824;-69
2022/08/09 09:36:53;;;;;;;2.93;2.83;;;36.90;42.00;;;;;;4975159;28;20419;-69
2022/08/09 09:39:19;;;;;;;2.73;2.63;;;37.00;42.10;;;;;;4976432;28;20503;-69
2022/08/09 09:41:44;;;;;;;3.07;2.87;;;37.10;41.90;;;;;;4976816;28;20403;-69
2022/08/09 09:44:10;;;;;;;2.97;2.87;;;37.10;42.00;;;;;;4976119;28;20430;-70
2022/08/09 09:46:38;;;;;;;2.90;2.80;;;37.40;41.70;;;;;;4976266;28;20238;-69
2022/08/09 09:49:11;;;;;;;2.97;2.87;;;37.70;41.70;;;;;;4976189;28;20180;-70
2022/08/09 09:51:39;;;;;;;3.40;3.20;;;38.40;40.80;;;;;;4976098;28;20408;-70
2022/08/09 09:54:13;;;;;;;2.80;2.70;;;38.20;41.10;;;;;;4975852;28;20439;-70
2022/08/09 09:56:42;;;;;;;3.00;2.80;;;38.50;40.40;;;;;;4976180;28;20416;-70
2022/08/09 09:59:09;;;;;;;3.03;2.83;;;38.60;39.30;;;;;;4976172;28;20489;-69
2022/08/09 10:01:36;;;;;;;3.33;2.70;;;38.60;38.50;;;;;;4976433;28;20495;-70
2022/08/09 10:04:02;;;;;;;2.70;2.57;;;38.20;38.80;;;;;;4975702;28;20867;-71
2022/08/09 10:06:38;;;;;;;2.60;2.50;;;37.90;39.00;;;;;;4975611;28;20423;-71
2022/08/09 10:09:04;;;;;;;2.90;2.70;;;37.90;38.80;;;;;;4976191;28;20419;-69
2022/08/09 10:11:32;;;;;;;2.73;2.50;;;37.60;38.90;;;;;;4976053;28;20479;-70
2022/08/09 10:13:58;;;;;;;3.17;2.97;;;37.20;39.00;;;;;;4975225;28;20223;-71
2022/08/09 10:16:32;;;;;;;3.50;3.30;;;37.00;39.30;;;;;;4975924;28;20379;-69
2022/08/09 10:19:07;;;;;;;2.47;2.37;;;36.90;39.80;;;;;;4975820;28;20408;-68
2022/08/09 10:21:34;;;;;;;2.37;2.27;;;36.80;39.40;;;;;;4976026;28;20388;-69
2022/08/09 10:24:02;;;;;;;2.60;2.50;;;36.60;39.70;;;;;;4975097;28;20471;-73
2022/08/09 10:26:28;;;;;;;2.53;2.43;;;36.20;39.90;;;;;;4975962;28;20430;-66
2022/08/09 10:28:54;;;;;;;2.63;2.43;;;35.70;40.20;;;;;;4975570;28;20513;-66
2022/08/09 10:31:21;;;;;;;2.37;2.27;;;35.80;40.30;;;;;;4975633;28;20912;-67
2022/08/09 10:33:47;;;;;;;3.03;2.80;;;35.90;39.20;;;;;;4974969;28;20409;-69
2022/08/09 10:36:14;;;;;;;2.47;2.37;;;35.70;39.50;;;;;;4975411;28;20798;-69
2022/08/09 10:38:42;;;;;;;2.63;2.53;;;35.50;39.20;;;;;;4975594;28;20425;-68
2022/08/09 10:41:09;;;;;;;2.50;2.30;;;35.30;39.60;;;;;;4974267;28;20959;-69
2022/08/09 10:43:36;;;;;;;2.57;2.47;;;35.10;39.70;;;;;;4973709;28;20939;-69
2022/08/09 10:46:28;;;;;;;2.30;2.07;;;35.00;39.90;;;;;;4975048;28;20431;-69
2022/08/09 10:49:04;;;;;;;2.23;2.13;;;34.70;39.70;;;;;;4989076;28;20457;-69
2022/08/09 10:51:52;;;;;;;2.50;2.40;;;34.50;40.00;;;;;;4975465;28;20389;-69
2022/08/09 10:54:23;;;;;;;2.47;2.27;;;34.00;40.70;;;;;;4974744;28;20769;-69
2022/08/09 10:57:06;;;;;;;3.23;2.40;;;33.60;41.00;;;;;;4974154;28;20387;-69
2022/08/09 10:59:32;;;;;;;2.67;2.47;;;33.40;41.40;;;;;;4973223;28;20407;-68
2022/08/09 11:01:58;;;;;;;2.50;2.30;;;33.50;41.40;;;;;;4973128;28;20478;-68
2022/08/09 11:04:27;;;;;;;3.03;2.53;;;33.70;41.00;;;;;;4972552;28;20426;-69
2022/08/09 11:06:58;;;;;;;2.53;2.43;;;33.80;41.50;;;;;;4972363;28;20403;-68
2022/08/09 11:09:42;;;;;;;2.47;2.37;;;33.90;41.20;;;;;;4973122;28;20466;-68
2022/08/09 11:12:09;;;;;;;3.97;1.80;;;33.80;41.10;;;;;;4974070;28;20389;-68
2022/08/09 11:14:55;;;;;;;2.67;2.47;;;33.80;40.80;;;;;;4974286;28;20418;-69
2022/08/09 11:17:21;;;;;;;2.30;2.10;;;33.50;41.50;;;;;;4974823;28;20415;-68
2022/08/09 11:20:06;;;;;;;2.20;2.00;;;32.80;41.60;;;;;;4973513;28;20469;-68
2022/08/09 11:22:43;;;;;;;3.50;3.10;;;32.30;42.60;;;;;;4974513;28;20183;-68
2022/08/09 11:25:13;;;;;;;5.53;2.00;;;31.90;42.70;;;;;;4974066;28;20812;-68
2022/08/09 11:27:47;;;;;;;2.40;2.30;;;31.40;43.40;;;;;;4973284;28;20460;-68
2022/08/09 11:30:21;;;;;;;2.37;2.27;;;30.80;44.10;;;;;;4973558;28;20412;-70
2022/08/09 11:32:53;;;;;;;2.60;2.40;;;30.30;44.70;;;;;;4974466;28;20481;-70
2022/08/09 11:35:21;;;;;;;2.30;2.20;;;30.00;44.80;;;;;;4974320;28;20414;-71
2022/08/09 11:37:49;;;;;;;2.40;2.30;;;29.70;45.60;;;;;;4974589;28;20408;-72
2022/08/09 11:40:35;;;;;;;2.33;2.23;;;29.50;45.90;;;;;;4974866;28;20404;-70
2022/08/09 11:43:01;;;;;;;2.70;2.50;;;29.40;46.10;;;;;;4974009;28;20753;-70
2022/08/09 11:45:42;;;;;;;3.23;2.27;;;29.20;46.00;;;;;;4974110;28;20426;-68
2022/08/09 11:48:19;;;;;;;2.60;2.50;;;29.00;46.40;;;;;;4955287;28;20219;-67
2022/08/09 11:50:57;;;;;;;2.27;2.17;;;29.00;46.60;;;;;;4955346;28;20452;-68
2022/08/09 11:53:33;;;;;;;2.53;2.33;;;29.00;46.40;;;;;;4954828;29;20405;-67
2022/08/09 11:56:15;;;;;;;2.20;2.10;;;29.00;46.70;;;;;;4972269;28;20472;-68
2022/08/09 11:58:54;;;;;;;3.80;2.00;;;29.00;46.40;;;;;;4974734;28;20916;-68
2022/08/09 12:01:41;;;;;;;2.07;1.97;;;29.00;46.40;;;;;;4974319;28;20411;-68
2022/08/09 12:04:10;;;;;;;2.50;2.30;;;29.10;46.10;;;;;;4954600;28;21020;-68
2022/08/09 12:06:36;;;;;;;2.00;1.90;;;29.00;45.70;;;;;;4954999;28;20392;-65
2022/08/09 12:09:10;;;;;;;2.27;2.17;;;29.00;45.60;;;;;;4955152;28;20976;-65
2022/08/09 12:11:36;;;;;;;2.17;2.07;;;28.90;46.00;;;;;;4964764;28;20834;-67
2022/08/09 12:14:09;;;;;;;1.90;1.80;;;29.00;45.50;;;;;;4973541;28;20448;-66
2022/08/09 12:16:40;;;;;;;2.30;2.00;;;29.00;45.50;;;;;;4974436;28;20495;-66
2022/08/09 12:19:08;;;;;;;2.10;2.00;;;29.00;45.20;;;;;;4978247;28;20413;-67
2022/08/09 12:21:43;;;;;;;2.00;1.90;;;29.00;45.50;;;;;;4977669;28;20515;-68
2022/08/09 12:24:10;;;;;;;1.90;1.80;;;29.00;45.40;;;;;;4976165;28;20445;-67
2022/08/09 12:26:38;;;;;;;1.80;1.70;;;29.10;45.10;;;;;;4976643;28;20431;-67
2022/08/09 12:29:04;;;;;;;1.77;1.67;;;29.20;44.30;;;;;;4977695;28;20448;-67
2022/08/09 12:31:33;;;;;;;2.10;2.00;;;29.20;44.10;;;;;;4977463;28;20792;-67
2022/08/09 12:33:59;;;;;;;2.17;2.07;;;29.20;44.20;;;;;;4977279;28;20404;-68
2022/08/09 12:36:25;;;;;;;1.60;1.50;;;29.20;44.10;;;;;;4977663;28;20381;-68
2022/08/09 12:38:52;;;;;;;1.67;1.53;;;29.20;44.80;;;;;;4977780;28;20175;-68
2022/08/09 12:41:30;;;;;;;1.90;1.80;;;29.30;45.10;;;;;;4977375;28;20176;-67
2022/08/09 12:43:57;;;;;;;2.00;1.90;;;29.30;44.10;;;;;;4976934;28;20437;-65
2022/08/09 12:46:24;;;;;;;2.43;1.57;;;29.30;44.20;;;;;;4977440;28;20425;-67
2022/08/09 12:48:54;;;;;;;2.30;2.00;;;29.20;45.20;;;;;;4977215;28;20469;-68
2022/08/09 12:51:21;;;;;;;1.60;1.50;;;29.30;45.10;;;;;;4976844;28;20495;-68
2022/08/09 12:53:57;;;;;;;1.87;1.77;;;29.30;44.90;;;;;;4976399;28;20426;-70
2022/08/09 12:56:23;;;;;;;2.07;1.93;;;29.30;43.80;;;;;;4977225;28;20381;-68
2022/08/09 12:59:14;;;;;;;2.50;2.30;;;29.30;44.00;;;;;;4977260;28;20930;-68
2022/08/09 13:01:45;;;;;;;1.87;1.77;;;29.30;43.50;;;;;;4976524;28;20187;-70
2022/08/09 13:04:13;;;;;;;1.93;1.83;;;29.20;43.80;;;;;;4974847;28;20485;-70
2022/08/09 13:06:44;;;;;;;2.23;1.73;;;29.20;43.60;;;;;;4975292;28;20388;-67
2022/08/09 13:09:23;;;;;;;1.77;1.73;;;29.20;43.80;;;;;;4975221;28;20908;-67
2022/08/09 13:11:54;;;;;;;1.70;1.70;;;29.30;44.00;;;;;;4975078;28;20435;-69
2022/08/09 13:14:25;;;;;;;1.80;1.70;;;29.30;43.90;;;;;;4974814;28;20988;-68
2022/08/09 13:16:53;;;;;;;1.77;1.67;;;29.30;44.10;;;;;;4975354;28;20406;-67
2022/08/09 13:19:25;;;;;;;1.77;1.67;;;29.20;44.30;;;;;;4977159;28;20502;-67
2022/08/09 13:22:08;;;;;;;1.90;1.80;;;29.20;44.90;;;;;;4976811;28;20899;-67
2022/08/09 13:24:34;;;;;;;2.03;1.93;;;29.30;44.70;;;;;;4976810;28;20417;-67
2022/08/09 13:27:00;;;;;;;3.50;2.10;;;29.30;44.80;;;;;;4976927;28;20380;-67
2022/08/09 13:29:25;;;;;;;1.83;1.73;;;29.40;44.90;;;;;;4976371;28;20171;-67
2022/08/09 13:32:02;;;;;;;1.97;1.87;;;29.50;44.50;;;;;;4976713;28;20221;-67
2022/08/09 13:34:29;;;;;;;2.40;1.97;;;29.50;44.40;;;;;;4976432;28;20193;-67
2022/08/09 13:36:57;;;;;;;1.93;1.83;;;29.50;44.20;;;;;;4976777;28;20406;-67
2022/08/09 13:39:23;;;;;;;1.83;1.73;;;29.40;44.00;;;;;;4976765;28;20498;-67
2022/08/09 13:41:49;;;;;;;2.33;2.23;;;29.40;44.10;;;;;;4976053;28;20810;-67
2022/08/09 13:44:15;;;;;;;1.60;1.60;;;29.40;44.40;;;;;;4975748;28;20421;-67
2022/08/09 13:46:40;;;;;;;1.80;1.70;;;29.50;43.50;;;;;;4976698;28;20380;-67
2022/08/09 13:49:06;;;;;;;2.20;2.00;;;29.50;43.40;;;;;;4976343;28;20477;-68
2022/08/09 13:51:32;;;;;;;1.80;1.70;;;29.40;43.70;;;;;;4976157;28;20174;-67
2022/08/09 13:53:57;;;;;;;2.20;2.10;;;29.40;44.10;;;;;;4975902;28;20262;-67
2022/08/09 13:56:23;;;;;;;1.90;1.80;;;29.30;44.60;;;;;;4976493;28;20595;-68
2022/08/09 13:58:52;;;;;;;1.47;1.40;;;29.40;44.40;;;;;;4975264;28;20542;-67
2022/08/09 14:01:18;;;;;;;1.73;1.63;;;29.40;44.50;;;;;;4976433;28;20174;-67
2022/08/09 14:03:44;;;;;;;3.70;1.67;;;29.40;44.60;;;;;;4975360;28;20444;-67
2022/08/09 14:06:12;;;;;;;2.00;1.87;;;29.40;44.70;;;;;;4976286;28;20414;-67
2022/08/09 14:08:38;;;;;;;1.80;1.70;;;29.40;44.80;;;;;;4976055;28;20481;-67
2022/08/09 14:11:05;;;;;;;2.63;1.90;;;29.50;44.50;;;;;;4976275;28;20404;-67
2022/08/09 14:13:31;;;;;;;2.00;1.90;;;29.50;44.80;;;;;;4975313;28;20528;-68
2022/08/09 14:15:57;;;;;;;1.90;1.80;;;29.50;44.30;;;;;;4976145;28;21006;-68
2022/08/09 14:18:24;;;;;;;1.73;1.63;;;29.50;44.30;;;;;;4975904;28;20523;-67
2022/08/09 14:20:50;;;;;;;2.50;2.03;;;29.50;44.00;;;;;;4976106;28;20170;-66
2022/08/09 14:23:16;;;;;;;2.00;1.90;;;29.40;43.90;;;;;;4974973;28;20487;-68
2022/08/09 14:25:41;;;;;;;1.97;1.87;;;29.30;44.20;;;;;;4975884;28;20956;-68
2022/08/09 14:28:07;;;;;;;1.87;1.77;;;29.30;44.30;;;;;;4975757;28;20223;-68
2022/08/09 14:30:33;;;;;;;1.63;1.63;;;29.20;44.30;;;;;;4975612;28;20322;-67
2022/08/09 14:32:59;;;;;;;3.83;1.90;;;29.20;44.00;;;;;;4974846;28;20259;-68
2022/08/09 14:35:25;;;;;;;1.80;1.80;;;29.20;44.10;;;;;;4975512;28;20492;-67
2022/08/09 14:37:50;;;;;;;1.57;1.57;;;29.20;44.20;;;;;;4974127;28;20209;-68
2022/08/09 14:40:16;;;;;;;1.90;1.80;;;29.20;44.30;;;;;;4974864;28;20680;-68
2022/08/09 14:42:42;;;;;;;1.70;1.60;;;29.30;44.20;;;;;;4973283;28;20210;-68
2022/08/09 14:45:10;;;;;;;1.80;1.70;;;29.30;44.00;;;;;;4975137;28;20343;-67
2022/08/09 14:47:36;;;;;;;1.67;1.60;;;29.40;44.30;;;;;;4975177;28;20484;-68
2022/08/09 14:50:02;;;;;;;1.77;1.67;;;29.40;43.50;;;;;;4975044;28;20447;-68
2022/08/09 14:52:28;;;;;;;1.80;1.70;;;29.40;43.00;;;;;;4974938;28;20175;-68
2022/08/09 14:54:53;;;;;;;1.80;1.70;;;29.40;43.00;;;;;;4973873;28;20968;-67
2022/08/09 14:57:19;;;;;;;1.57;1.47;;;29.30;43.00;;;;;;4975009;28;20508;-68
2022/08/09 14:59:45;;;;;;;1.80;1.70;;;29.40;43.00;;;;;;4975041;28;20258;-67
2022/08/09 15:02:10;;;;;;;1.63;1.53;;;29.30;42.60;;;;;;4974768;28;20173;-67
2022/08/09 15:04:36;;;;;;;1.80;1.70;;;29.30;42.90;;;;;;4974649;28;20218;-67
2022/08/09 15:07:02;;;;;;;2.10;1.50;;;29.20;42.50;;;;;;4975034;28;20656;-70
2022/08/09 15:09:29;;;;;;;1.60;1.60;;;29.20;42.70;;;;;;4974796;28;20566;-69
2022/08/09 15:11:55;;;;;;;1.97;1.87;;;29.20;42.50;;;;;;4975105;28;20170;-67
2022/08/09 15:14:21;;;;;;;1.50;1.47;;;29.20;42.90;;;;;;4974461;28;20541;-70
2022/08/09 15:16:47;;;;;;;1.87;1.77;;;29.20;42.90;;;;;;4974929;28;20408;-68
2022/08/09 15:19:13;;;;;;;1.70;1.60;;;29.20;43.20;;;;;;4974732;28;20400;-68
2022/08/09 15:21:39;;;;;;;1.30;1.30;;;29.30;43.00;;;;;;4974912;28;20174;-68
2022/08/09 15:24:06;;;;;;;1.40;1.40;;;29.30;42.70;;;;;;4974430;28;20249;-66
2022/08/09 15:26:31;;;;;;;1.57;1.40;;;29.30;42.40;;;;;;4973365;28;20911;-66
2022/08/09 15:28:57;;;;;;;1.47;1.47;;;29.30;42.90;;;;;;4974582;28;20503;-67
2022/08/09 15:31:23;;;;;;;1.97;1.87;;;29.40;42.50;;;;;;4974283;28;20177;-68
2022/08/09 15:33:49;;;;;;;1.83;1.73;;;29.40;42.80;;;;;;4974591;28;20986;-68
2022/08/09 15:36:15;;;;;;;1.80;1.70;;;29.40;42.40;;;;;;4974751;28;20171;-68
2022/08/09 15:38:40;;;;;;;1.83;1.73;;;29.40;42.40;;;;;;4974826;28;20410;-67
2022/08/09 15:41:06;;;;;;;2.10;2.00;;;29.40;42.60;;;;;;4974094;28;20209;-67
2022/08/09 15:43:33;;;;;;;1.50;1.40;;;29.40;42.90;;;;;;4974315;28;20268;-68
2022/08/09 15:45:59;;;;;;;2.03;1.93;;;29.40;43.20;;;;;;4974612;28;20198;-68
2022/08/09 15:48:25;;;;;;;1.87;1.77;;;29.50;43.00;;;;;;4974380;28;20502;-68
2022/08/09 15:50:51;;;;;;;1.90;1.80;;;29.40;43.20;;;;;;4974184;28;20181;-68
2022/08/09 15:53:16;;;;;;;2.67;1.70;;;29.30;43.00;;;;;;4979520;28;20198;-66
2022/08/09 15:55:42;;;;;;;1.50;1.50;;;29.20;42.80;;;;;;4981017;28;20170;-67
2022/08/09 15:58:08;;;;;;;1.80;1.70;;;29.20;43.10;;;;;;4981177;28;20172;-68
2022/08/09 16:00:33;;;;;;;2.53;1.90;;;29.10;42.90;;;;;;4981032;28;20243;-67
2022/08/09 16:02:59;;;;;;;2.23;2.13;;;29.00;43.20;;;;;;4980572;28;20631;-67
2022/08/09 16:05:30;;;;;;;2.00;1.80;;;29.00;42.90;;;;;;4980983;28;20184;-67
2022/08/09 16:07:56;;;;;;;1.93;1.83;;;29.00;43.10;;;;;;4980481;28;20675;-67
2022/08/09 16:10:21;;;;;;;2.30;2.10;;;29.00;43.20;;;;;;4980829;28;20481;-67
2022/08/09 16:12:47;;;;;;;1.80;1.70;;;29.00;42.70;;;;;;4980508;28;20172;-67
2022/08/09 16:15:13;;;;;;;1.83;1.73;;;29.10;42.80;;;;;;4980310;28;20194;-68
2022/08/09 16:17:40;;;;;;;2.00;1.90;;;29.10;42.80;;;;;;4980456;28;20182;-67
2022/08/09 16:20:08;;;;;;;2.10;2.00;;;29.10;43.00;;;;;;4980921;28;20413;-67
2022/08/09 16:22:35;;;;;;;1.80;1.70;;;29.10;42.80;;;;;;4980437;28;20417;-67
2022/08/09 16:25:03;;;;;;;1.70;1.70;;;29.10;42.90;;;;;;4979287;28;20472;-68
2022/08/09 16:27:29;;;;;;;2.03;1.90;;;29.10;43.20;;;;;;4980168;28;20461;-67
2022/08/09 16:29:54;;;;;;;2.27;2.07;;;29.10;43.20;;;;;;4980749;28;20490;-67
2022/08/09 16:32:20;;;;;;;2.17;1.97;;;29.00;43.00;;;;;;4980425;28;20175;-69
2022/08/09 16:34:46;;;;;;;2.77;1.90;;;29.10;42.80;;;;;;4980775;28;20286;-68
2022/08/09 16:37:11;;;;;;;2.00;1.80;;;29.00;43.10;;;;;;4980269;28;20259;-68
2022/08/09 16:39:37;;;;;;;2.60;2.40;;;29.00;42.90;;;;;;4980707;28;20197;-67
2022/08/09 16:42:03;;;;;;;1.70;1.60;;;28.90;43.20;;;;;;4980557;28;20172;-66
2022/08/09 16:44:28;;;;;;;1.77;1.67;;;28.90;43.00;;;;;;4980109;28;20283;-67
2022/08/09 16:46:54;;;;;;;2.20;2.00;;;28.80;43.30;;;;;;4980200;28;20311;-67
2022/08/09 16:49:20;;;;;;;2.10;2.00;;;28.70;43.20;;;;;;4979312;28;20169;-66
2022/08/09 16:51:45;;;;;;;1.63;1.60;;;28.70;43.30;;;;;;4980573;28;20173;-66
2022/08/09 16:54:11;;;;;;;1.97;1.87;;;28.70;43.30;;;;;;4979988;28;20234;-66